Needmore, Indiana
Current Conditions -  °F | °C
As of 8:18 PM on Monday 26 Jan 2015 (Local Time) from KBMG Reporting Station
Light Snow Light Snow  
Wind Chill: -5°   Ceiling: 4900
Heat Index: -2°   Visibility: 4mi
Dew Point: -4°   Wind: 5mph
Humidity: 88%   Direction: 240°WSW
Pressure: 29.93"   Gusts: NA
Location:  38.8737°N, 86.4563°W
Report Text: KBMG 270118Z 24004KT 4SM -SN BR SCT009 BKN049 OVC060 M02/M04 A2993 RMK AO2 P0000 T10221039
Loading
Personal Weather Stations






























Interactive Weather Map New forecast layout! Learn more

10-Day Weather Forecast

Advertisements
Track Severe Weather on mobile